Aviation Digital Data Service (ADDS)

Output produced by METARs form (1536 UTC 27 May 2017)
found at http://aviationweather.gov/adds/metars/
 
KBOS 271501Z 2715/2818 12011KT P6SM SCT025 BKN035 
     TEMPO 2715/2717 BKN025 
     FM271700 12011KT P6SM SCT025 BKN035 
     FM272100 11010KT P6SM BKN040 
     FM280400 12008KT 5SM -DZ BKN025 
     FM281200 15004KT P6SM BKN035